Time;durP1;ratioP1;P1;durP2;ratioP2;P2;SDS_P1;SDS_P2;PMS_P1;PMS_P2;Temp;Humidity;BMP_temperature;BMP_pressure;BME280_temperature;BME280_humidity;BME280_pressure;Samples;Min_cycle;Max_cycle;Signal;HPM_P1;HPM_P2
2022/01/01 00:00:47;;;;;;;25.50;10.98;;;;;;;12.63;89.01;102274.34;5053623;28;20025;-64
2022/01/01 00:03:12;;;;;;;30.70;11.20;;;;;;;12.62;88.87;102265.50;5053609;28;20032;-64
2022/01/01 00:05:37;;;;;;;28.58;11.65;;;;;;;12.64;89.13;102265.56;5053422;28;20363;-64
2022/01/01 00:08:05;;;;;;;30.45;12.20;;;;;;;12.64;88.91;102271.75;5053361;28;20029;-65
2022/01/01 00:10:32;;;;;;;28.00;12.25;;;;;;;12.63;89.16;102272.59;5053388;28;20024;-64
2022/01/01 00:12:57;;;;;;;35.50;12.85;;;;;;;12.64;88.96;102281.47;5053432;28;20025;-63
2022/01/01 00:15:23;;;;;;;29.08;12.45;;;;;;;12.64;89.25;102285.03;5053389;28;20047;-63
2022/01/01 00:17:48;;;;;;;35.30;14.10;;;;;;;12.66;89.14;102287.69;5053414;28;20021;-63
2022/01/01 00:20:14;;;;;;;35.17;15.60;;;;;;;12.66;88.99;102285.94;5053210;28;20028;-65
2022/01/01 00:22:41;;;;;;;34.53;16.35;;;;;;;12.66;88.86;102283.28;5053496;28;20033;-66
2022/01/01 00:25:09;;;;;;;34.22;17.05;;;;;;;12.66;89.01;102293.91;5053079;28;20035;-66
2022/01/01 00:27:35;;;;;;;39.72;17.63;;;;;;;12.68;88.86;102291.31;5052770;28;20039;-65
2022/01/01 00:30:01;;;;;;;38.97;17.35;;;;;;;12.70;88.90;102294.88;5052390;28;20096;-65
2022/01/01 00:32:26;;;;;;;32.97;17.90;;;;;;;12.70;88.88;102294.88;5052898;28;20013;-65
2022/01/01 00:34:52;;;;;;;39.28;15.82;;;;;;;12.70;88.51;102293.13;5052999;28;20031;-65
2022/01/01 00:37:18;;;;;;;34.85;13.73;;;;;;;12.72;88.47;102290.53;5053018;28;20385;-65
2022/01/01 00:39:44;;;;;;;29.67;12.88;;;;;;;12.70;88.78;102287.81;5053015;28;20029;-65
2022/01/01 00:42:09;;;;;;;34.60;13.10;;;;;;;12.70;88.68;102289.56;5052879;28;20398;-66
2022/01/01 00:44:35;;;;;;;29.75;11.40;;;;;;;12.72;88.64;102298.47;5053006;28;20025;-65
2022/01/01 00:47:01;;;;;;;30.30;10.80;;;;;;;12.66;88.50;102285.94;5052909;28;20036;-64
2022/01/01 00:49:28;;;;;;;27.33;11.05;;;;;;;12.70;88.68;102293.13;5052935;28;20025;-64
2022/01/01 00:51:53;;;;;;;29.80;11.35;;;;;;;12.71;88.69;102289.59;5052717;28;20025;-64
2022/01/01 00:54:18;;;;;;;30.05;10.50;;;;;;;12.70;88.60;102282.50;5052693;28;20044;-63
2022/01/01 00:56:44;;;;;;;26.92;11.45;;;;;;;12.69;88.74;102282.47;5052688;28;20033;-65
2022/01/01 00:59:10;;;;;;;30.33;11.65;;;;;;;12.70;88.75;102281.63;5052942;28;20482;-64
2022/01/01 01:01:38;;;;;;;31.55;11.05;;;;;;;12.70;88.41;102292.22;5052843;28;20112;-65
2022/01/01 01:04:04;;;;;;;30.58;11.07;;;;;;;12.70;88.83;102290.47;5052954;28;20032;-63
2022/01/01 01:06:30;;;;;;;28.95;11.15;;;;;;;12.69;88.42;102295.75;5052780;28;20033;-64
2022/01/01 01:08:58;;;;;;;24.70;9.95;;;;;;;12.70;88.73;102293.13;5052708;28;20100;-64
2022/01/01 01:11:29;;;;;;;30.13;10.85;;;;;;;12.68;88.56;102291.31;5052717;28;20025;-64
2022/01/01 01:13:58;;;;;;;31.73;10.85;;;;;;;12.67;88.65;102286.84;5052974;28;20035;-63
2022/01/01 01:16:26;;;;;;;31.60;10.65;;;;;;;12.65;88.73;102294.75;5052599;28;20036;-64
2022/01/01 01:18:53;;;;;;;27.65;9.82;;;;;;;12.65;88.61;102294.75;5052485;28;20022;-64
2022/01/01 01:21:22;;;;;;;30.80;10.52;;;;;;;12.63;88.58;102290.25;5034711;28;20029;-64
2022/01/01 01:23:49;;;;;;;29.55;10.88;;;;;;;12.64;88.53;102292.97;5052653;28;20429;-64
2022/01/01 01:26:20;;;;;;;26.13;9.18;;;;;;;12.63;88.73;102292.91;5034478;28;20368;-64
2022/01/01 01:28:48;;;;;;;28.60;9.65;;;;;;;12.64;88.82;102302.69;5052858;28;20017;-64
2022/01/01 01:31:15;;;;;;;26.45;10.20;;;;;;;12.62;88.74;102302.63;5052570;28;20037;-64
2022/01/01 01:33:41;;;;;;;31.52;10.02;;;;;;;12.63;88.85;102292.91;5052726;28;20036;-61
2022/01/01 01:36:06;;;;;;;33.78;10.68;;;;;;;12.64;88.91;102294.75;5052444;28;20025;-62
2022/01/01 01:38:36;;;;;;;28.67;10.82;;;;;;;12.63;88.84;102303.53;5052424;28;20045;-62
2022/01/01 01:41:05;;;;;;;29.27;10.77;;;;;;;12.65;88.73;102300.06;5052465;28;20025;-62
2022/01/01 01:43:31;;;;;;;25.50;10.32;;;;;;;12.62;89.09;102292.03;5056127;28;20113;-62
2022/01/01 01:46:02;;;;;;;27.38;10.00;;;;;;;12.64;89.12;102297.38;5056263;28;20025;-62
2022/01/01 01:48:28;;;;;;;31.73;11.05;;;;;;;12.63;89.14;102303.53;5056186;28;20029;-61
2022/01/01 01:50:56;;;;;;;27.67;10.15;;;;;;;12.60;89.52;102314.97;5055992;28;20035;-61
2022/01/01 01:53:21;;;;;;;28.65;10.52;;;;;;;12.61;89.42;102329.13;5055765;28;20052;-61
2022/01/01 01:55:47;;;;;;;29.00;10.32;;;;;;;12.61;89.52;102331.78;5055930;28;20024;-62
2022/01/01 01:58:12;;;;;;;31.88;10.60;;;;;;;12.61;89.92;102330.00;5055865;28;20032;-61
2022/01/01 02:03:15;;;;;;;25.75;9.90;;;;;;;12.61;89.58;102330.00;5056146;28;20039;-62
2022/01/01 02:05:40;;;;;;;23.13;9.23;;;;;;;12.61;89.80;102327.38;5055780;28;20120;-62
2022/01/01 02:08:07;;;;;;;23.95;9.25;;;;;;;12.60;89.84;102317.63;5055640;28;20481;-62
2022/01/01 02:10:33;;;;;;;25.35;8.93;;;;;;;12.61;90.00;102318.50;5055638;28;20036;-62
2022/01/01 02:13:05;;;;;;;26.00;9.27;;;;;;;12.60;90.07;102314.97;5055627;28;20032;-61
2022/01/01 02:18:16;;;;;;;26.45;9.25;;;;;;;12.59;89.81;102317.56;5055555;28;20058;-61
2022/01/01 02:20:44;;;;;;;24.20;9.38;;;;;;;12.58;89.78;102321.97;5055820;28;20032;-62
2022/01/01 02:23:14;;;;;;;24.40;9.55;;;;;;;12.57;89.77;102321.94;5055409;28;20028;-61
2022/01/01 02:25:39;;;;;;;29.45;9.68;;;;;;;12.58;89.75;102307.81;5055444;28;20064;-62
2022/01/01 02:28:07;;;;;;;29.33;9.75;;;;;;;12.56;89.99;102310.44;5055368;28;20067;-62
2022/01/01 02:30:32;;;;;;;29.95;9.52;;;;;;;12.53;90.21;102308.59;5055343;28;20025;-72
2022/01/01 02:32:58;;;;;;;25.33;9.18;;;;;;;12.57;89.89;102314.88;5055349;28;20032;-63
2022/01/01 02:35:24;;;;;;;26.90;10.13;;;;;;;12.55;89.89;102313.97;5055157;28;20032;-66
2022/01/01 02:37:49;;;;;;;24.10;9.52;;;;;;;12.56;90.06;102315.75;5055168;28;20402;-65
2022/01/01 02:40:15;;;;;;;24.38;10.27;;;;;;;12.55;90.02;102308.66;5055280;28;20481;-66
2022/01/01 02:42:42;;;;;;;27.67;9.60;;;;;;;12.56;90.22;102304.25;5055142;28;20016;-65
2022/01/01 02:45:11;;;;;;;28.30;9.65;;;;;;;12.58;90.00;102310.47;5055087;28;20029;-65
2022/01/01 02:47:38;;;;;;;21.75;9.73;;;;;;;12.58;89.98;102321.06;5054896;28;20112;-66
2022/01/01 02:50:04;;;;;;;27.75;9.95;;;;;;;12.57;90.00;102311.34;5054913;28;20382;-64
2022/01/01 02:52:30;;;;;;;25.73;10.43;;;;;;;12.56;89.98;102313.09;5054806;28;20055;-65
2022/01/01 02:54:55;;;;;;;24.70;10.15;;;;;;;12.58;89.77;102311.38;5054301;28;20021;-65
2022/01/01 02:57:21;;;;;;;25.23;11.27;;;;;;;12.57;89.77;102298.06;5054857;28;20437;-64
2022/01/01 02:59:46;;;;;;;27.95;10.52;;;;;;;12.58;89.55;102297.22;5054969;28;20414;-64
2022/01/01 03:02:12;;;;;;;24.25;11.55;;;;;;;12.56;89.79;102288.34;5054782;28;20067;-65
2022/01/01 03:04:37;;;;;;;25.85;10.73;;;;;;;12.48;89.70;102269.56;5054689;28;20111;-65
2022/01/01 03:07:03;;;;;;;26.73;11.75;;;;;;;12.53;90.01;102281.19;5054234;28;20100;-64
2022/01/01 03:09:34;;;;;;;28.98;11.35;;;;;;;12.53;89.67;102283.84;5054897;28;20025;-64
2022/01/01 03:12:09;;;;;;;23.40;11.15;;;;;;;12.53;89.59;102284.72;5054557;28;20470;-65
2022/01/01 03:14:36;;;;;;;35.33;15.85;;;;;;;12.54;89.62;102280.31;5054513;28;20078;-64
2022/01/01 03:17:04;;;;;;;56.90;36.70;;;;;;;12.56;89.68;102289.22;5054425;28;20033;-64
2022/01/01 03:19:29;;;;;;;59.97;35.03;;;;;;;12.56;89.38;102283.03;5054393;28;20025;-65
2022/01/01 03:21:54;;;;;;;44.47;21.35;;;;;;;12.57;89.66;102285.72;5054163;28;20120;-65
2022/01/01 03:24:20;;;;;;;27.58;13.98;;;;;;;12.56;89.40;102291.88;5054373;28;20064;-65
2022/01/01 03:26:49;;;;;;;23.60;11.25;;;;;;;12.56;89.31;102289.22;5054355;28;20090;-65
2022/01/01 03:29:15;;;;;;;22.63;10.30;;;;;;;12.57;89.41;102284.81;5036475;28;20036;-62
2022/01/01 03:31:40;;;;;;;29.02;10.20;;;;;;;12.57;89.24;102285.72;5054188;28;20384;-62
2022/01/01 03:34:06;;;;;;;25.77;9.73;;;;;;;12.58;89.24;102287.50;5054168;28;20032;-62
2022/01/01 03:36:34;;;;;;;24.17;9.70;;;;;;;12.56;89.17;102283.94;5053795;28;20163;-62
2022/01/01 03:38:59;;;;;;;21.42;9.15;;;;;;;12.57;88.97;102272.47;5054002;28;20496;-62
2022/01/01 03:41:26;;;;;;;21.52;9.40;;;;;;;12.58;89.05;102282.19;5054156;28;20056;-61
2022/01/01 03:43:51;;;;;;;19.52;8.82;;;;;;;12.59;88.85;102276.06;5054206;28;20115;-61
2022/01/01 03:46:17;;;;;;;21.50;9.02;;;;;;;12.58;88.72;102276.00;5053865;28;20096;-63
2022/01/01 03:48:43;;;;;;;21.27;9.13;;;;;;;12.58;88.64;102276.00;5053909;28;20359;-62
2022/01/01 03:51:13;;;;;;;20.75;8.82;;;;;;;12.57;88.71;102279.50;5053597;28;20492;-62
2022/01/01 03:53:39;;;;;;;19.13;8.15;;;;;;;12.56;88.39;102273.31;5053574;28;20132;-62
2022/01/01 03:56:05;;;;;;;20.27;8.77;;;;;;;12.51;88.69;102270.56;5035788;28;20171;-62
2022/01/01 03:58:30;;;;;;;25.33;8.65;;;;;;;12.48;88.73;102265.16;5036079;28;20052;-61
2022/01/01 04:00:55;;;;;;;21.75;8.50;;;;;;;12.46;88.48;102271.28;5035854;28;20471;-61
2022/01/01 04:03:21;;;;;;;23.25;9.23;;;;;;;12.49;88.90;102271.34;5053853;28;20067;-61
2022/01/01 04:05:46;;;;;;;22.13;8.30;;;;;;;12.48;88.60;102267.81;5053212;28;20427;-61
2022/01/01 04:08:13;;;;;;;19.08;8.57;;;;;;;12.49;88.73;102266.94;5053712;28;20521;-61
2022/01/01 04:10:40;;;;;;;18.52;8.27;;;;;;;12.51;88.66;102282.91;5053465;28;20025;-61
2022/01/01 04:13:07;;;;;;;19.92;8.27;;;;;;;12.52;88.47;102282.94;5053448;28;20035;-61
2022/01/01 04:15:34;;;;;;;19.60;7.78;;;;;;;12.52;88.41;102280.28;5053473;28;20028;-63
2022/01/01 04:18:03;;;;;;;19.15;7.93;;;;;;;12.53;88.14;102270.59;5053398;28;20359;-63
2022/01/01 04:20:29;;;;;;;18.95;7.93;;;;;;;12.53;88.24;102268.81;5053170;28;20084;-63
2022/01/01 04:22:57;;;;;;;17.45;7.30;;;;;;;12.53;88.41;102273.22;5053424;28;20434;-64
2022/01/01 04:25:24;;;;;;;21.70;7.95;;;;;;;12.52;88.11;102264.38;5035349;28;20017;-63
2022/01/01 04:27:52;;;;;;;23.88;8.00;;;;;;;12.50;88.02;102259.88;5053378;28;20090;-63
2022/01/01 04:30:18;;;;;;;17.35;6.97;;;;;;;12.52;87.66;102267.03;5053196;28;20383;-63
2022/01/01 04:32:43;;;;;;;19.50;7.47;;;;;;;12.51;87.56;102269.66;5053114;28;20104;-63
2022/01/01 04:35:10;;;;;;;19.20;7.57;;;;;;;12.49;87.52;102269.59;5052919;28;20027;-63
2022/01/01 04:37:35;;;;;;;19.20;7.30;;;;;;;12.51;87.90;102267.91;5053163;28;20107;-63
2022/01/01 04:40:01;;;;;;;16.75;6.60;;;;;;;12.51;87.94;102275.84;5053201;28;20108;-63
2022/01/01 04:42:27;;;;;;;17.23;6.72;;;;;;;12.51;87.78;102275.84;5053175;28;20466;-65
2022/01/01 04:44:53;;;;;;;19.42;6.78;;;;;;;12.51;87.87;102275.84;5053186;28;20522;-63
2022/01/01 04:47:25;;;;;;;14.75;6.60;;;;;;;12.53;87.52;102286.50;5052747;28;20033;-64
2022/01/01 04:49:51;;;;;;;19.55;7.03;;;;;;;12.52;87.43;102285.59;5052908;28;20029;-64
2022/01/01 04:52:17;;;;;;;18.77;6.70;;;;;;;12.53;87.28;102286.50;5034794;28;20032;-63
2022/01/01 04:54:44;;;;;;;16.52;6.88;;;;;;;12.53;87.20;102290.03;5052819;28;20025;-63
2022/01/01 04:57:15;;;;;;;19.20;6.30;;;;;;;12.54;87.29;102289.16;5053009;28;20033;-64
2022/01/01 04:59:42;;;;;;;23.33;6.80;;;;;;;12.54;87.10;102288.28;5052892;28;20401;-63
2022/01/01 05:02:08;;;;;;;16.10;6.70;;;;;;;12.56;86.93;102283.03;5052833;28;20548;-64
2022/01/01 05:04:36;;;;;;;22.20;6.53;;;;;;;12.53;86.85;102274.13;5052711;28;20029;-64
2022/01/01 05:07:02;;;;;;;17.25;7.13;;;;;;;12.54;86.83;102288.28;5034742;28;20025;-64
2022/01/01 05:09:28;;;;;;;15.77;6.78;;;;;;;12.52;86.54;102280.28;5053123;28;20017;-63
2022/01/01 05:11:54;;;;;;;20.67;6.45;;;;;;;12.55;86.87;102287.44;5052886;28;20029;-63
2022/01/01 05:14:19;;;;;;;15.30;6.63;;;;;;;12.55;86.59;102292.75;5052899;28;20143;-63
2022/01/01 05:16:51;;;;;;;15.25;6.40;;;;;;;12.57;87.01;102292.78;5054004;28;20060;-63
2022/01/01 05:19:17;;;;;;;15.15;6.50;;;;;;;12.56;86.73;102297.19;5056640;28;20090;-63
2022/01/01 05:21:43;;;;;;;15.90;6.45;;;;;;;12.55;86.85;102292.75;5056507;28;20056;-63
2022/01/01 05:24:08;;;;;;;17.80;6.43;;;;;;;12.56;86.64;102294.53;5056639;28;20398;-63
2022/01/01 05:26:34;;;;;;;16.90;6.95;;;;;;;12.55;86.38;102298.06;5038583;28;20106;-63
2022/01/01 05:29:00;;;;;;;15.32;6.00;;;;;;;12.56;86.71;102298.94;5056554;28;20053;-63
2022/01/01 05:31:26;;;;;;;19.02;6.53;;;;;;;12.52;86.39;102290.91;5056510;28;20021;-63
2022/01/01 05:33:53;;;;;;;16.83;6.93;;;;;;;12.54;86.39;102296.22;5056360;28;20039;-65
2022/01/01 05:36:19;;;;;;;17.27;6.97;;;;;;;12.52;86.64;102300.63;5056188;28;20401;-63
2022/01/01 05:38:45;;;;;;;16.90;6.20;;;;;;;12.52;86.50;102303.25;5056546;28;20025;-63
2022/01/01 05:41:11;;;;;;;17.60;6.47;;;;;;;12.50;86.58;102295.28;5056303;28;20033;-63
2022/01/01 05:43:37;;;;;;;16.58;6.45;;;;;;;12.48;86.33;102286.38;5056277;28;20021;-63
2022/01/01 05:46:04;;;;;;;16.42;6.60;;;;;;;12.49;86.42;102301.41;5056266;28;20082;-63
2022/01/01 05:48:29;;;;;;;15.63;6.80;;;;;;;12.48;86.62;102298.75;5037924;28;20028;-63
2022/01/01 05:50:55;;;;;;;17.05;6.25;;;;;;;12.49;86.25;102304.06;5038109;28;20030;-63
2022/01/01 05:53:21;;;;;;;17.35;6.30;;;;;;;12.47;86.42;102296.94;5055791;28;20409;-62
2022/01/01 05:55:47;;;;;;;15.18;6.15;;;;;;;12.47;86.29;102300.50;5056070;28;20021;-63
2022/01/01 05:58:13;;;;;;;14.50;6.32;;;;;;;12.47;86.31;102297.84;5055861;28;20492;-63
2022/01/01 06:00:39;;;;;;;17.42;6.78;;;;;;;12.47;86.05;102289.00;5056037;28;20104;-62
2022/01/01 06:03:04;;;;;;;14.75;6.03;;;;;;;12.47;85.97;102287.25;5055895;28;20032;-63
2022/01/01 06:05:30;;;;;;;19.92;6.60;;;;;;;12.46;86.31;102289.81;5055690;28;20074;-63
2022/01/01 06:07:58;;;;;;;15.25;6.25;;;;;;;12.45;86.06;102291.59;5055715;28;20106;-62
2022/01/01 06:10:24;;;;;;;15.77;6.65;;;;;;;12.42;85.87;102288.88;5055754;28;20032;-62
2022/01/01 06:12:50;;;;;;;14.73;6.13;;;;;;;12.45;85.95;102288.03;5055704;28;20029;-62
2022/01/01 06:15:16;;;;;;;14.65;6.28;;;;;;;12.41;86.06;102279.09;5055806;28;20028;-63
2022/01/01 06:17:41;;;;;;;19.30;5.95;;;;;;;12.42;85.60;102277.34;5055723;28;20037;-62
2022/01/01 06:20:07;;;;;;;18.00;6.43;;;;;;;12.39;86.02;102267.59;5055506;28;20083;-64
2022/01/01 06:22:32;;;;;;;17.27;5.82;;;;;;;12.39;85.70;102272.00;5055469;28;20029;-63
2022/01/01 06:24:58;;;;;;;13.65;5.68;;;;;;;12.37;85.74;102276.34;5055599;28;20107;-62
2022/01/01 06:27:24;;;;;;;17.00;6.35;;;;;;;12.35;85.69;102276.31;5055240;28;20029;-63
2022/01/01 06:29:50;;;;;;;16.98;5.97;;;;;;;12.36;85.48;102271.91;5054342;28;20411;-63
2022/01/01 06:32:16;;;;;;;17.27;5.47;;;;;;;12.31;85.58;102285.03;5055308;28;20117;-63
2022/01/01 06:34:41;;;;;;;12.93;5.70;;;;;;;12.31;85.43;102286.78;5055371;28;20036;-63
2022/01/01 06:37:06;;;;;;;17.83;5.45;;;;;;;12.25;84.89;102288.44;5055133;28;20017;-63
2022/01/01 06:39:32;;;;;;;16.33;4.85;;;;;;;12.24;85.08;102286.59;5055139;28;20029;-63
2022/01/01 06:41:57;;;;;;;13.90;5.13;;;;;;;12.20;85.38;102291.78;5037282;28;20028;-63
2022/01/01 06:44:23;;;;;;;14.15;5.25;;;;;;;12.16;85.20;102292.56;5055145;28;20018;-62
2022/01/01 06:46:50;;;;;;;17.23;5.35;;;;;;;12.15;85.54;102286.38;5054983;28;20036;-63
2022/01/01 06:49:15;;;;;;;15.55;5.47;;;;;;;12.15;85.43;102294.31;5055053;28;20029;-63
2022/01/01 06:51:40;;;;;;;14.13;5.18;;;;;;;12.13;85.76;102295.16;5054734;28;20074;-64
2022/01/01 06:54:06;;;;;;;15.32;5.50;;;;;;;12.10;85.67;102295.94;5054688;28;20386;-62
2022/01/01 06:56:32;;;;;;;9.52;4.97;;;;;;;12.10;85.73;102292.41;5055056;28;20029;-62
2022/01/01 06:58:57;;;;;;;16.00;5.60;;;;;;;12.08;85.75;102295.03;5054861;28;20600;-62
2022/01/01 07:01:23;;;;;;;14.48;5.20;;;;;;;12.05;85.17;102291.38;5054997;28;20028;-63
2022/01/01 07:03:50;;;;;;;17.02;5.07;;;;;;;12.06;85.47;102295.81;5055019;28;20028;-63
2022/01/01 07:06:15;;;;;;;13.55;5.28;;;;;;;12.03;85.76;102299.25;5054572;28;20158;-63
2022/01/01 07:08:40;;;;;;;16.50;5.57;;;;;;;12.02;85.90;102313.38;5054578;28;20082;-63
2022/01/01 07:11:06;;;;;;;16.67;5.38;;;;;;;12.03;85.47;102312.50;5054535;28;20020;-63
2022/01/01 07:13:32;;;;;;;12.38;4.90;;;;;;;12.00;85.55;102313.34;5054518;28;20033;-62
2022/01/01 07:15:57;;;;;;;12.60;4.82;;;;;;;12.03;85.64;102328.41;5054499;28;20032;-62
2022/01/01 07:18:23;;;;;;;13.32;5.15;;;;;;;12.02;86.00;102324.88;5054710;28;20029;-63
2022/01/01 07:20:48;;;;;;;14.57;5.32;;;;;;;12.03;85.97;102328.41;5054407;28;20088;-63
2022/01/01 07:23:14;;;;;;;11.85;4.70;;;;;;;12.05;85.49;102325.81;5054017;28;20029;-62
2022/01/01 07:25:39;;;;;;;13.07;4.82;;;;;;;12.05;85.49;102332.03;5054310;28;20106;-63
2022/01/01 07:28:04;;;;;;;11.63;4.90;;;;;;;12.04;85.48;102322.28;5054313;28;20112;-63
2022/01/01 07:30:30;;;;;;;12.27;4.78;;;;;;;12.04;85.58;102319.63;5054539;28;20021;-62
2022/01/01 07:32:55;;;;;;;13.68;4.53;;;;;;;12.03;84.96;102318.75;5054218;28;20492;-63
2022/01/01 07:35:21;;;;;;;15.93;4.90;;;;;;;12.02;85.37;102330.16;5054215;28;20049;-63
2022/01/01 07:37:47;;;;;;;16.05;5.03;;;;;;;12.06;85.11;102332.91;5054119;28;20028;-64
2022/01/01 07:40:15;;;;;;;15.75;5.18;;;;;;;12.03;84.88;102326.69;5053621;28;20433;-63
2022/01/01 07:42:41;;;;;;;11.95;4.70;;;;;;;12.03;85.01;102331.06;5054139;28;20082;-62
2022/01/01 07:45:07;;;;;;;13.40;4.82;;;;;;;12.05;84.75;102339.97;5054184;28;20083;-62
2022/01/01 07:47:33;;;;;;;14.05;5.07;;;;;;;12.01;85.11;102343.38;5053690;28;20025;-62
2022/01/01 07:49:58;;;;;;;11.48;4.40;;;;;;;12.01;84.83;102346.03;5053988;28;20025;-62
2022/01/01 07:52:25;;;;;;;12.57;4.55;;;;;;;12.01;84.76;102346.94;5053558;28;20485;-63
2022/01/01 07:54:50;;;;;;;19.08;5.18;;;;;;;12.01;84.76;102343.38;5052744;28;20402;-63
2022/01/01 07:57:16;;;;;;;13.10;4.45;;;;;;;12.01;84.88;102348.69;5053210;28;20025;-65
2022/01/01 07:59:41;;;;;;;16.95;4.72;;;;;;;12.01;84.83;102344.28;5053249;28;20025;-63
2022/01/01 08:02:08;;;;;;;11.10;4.55;;;;;;;12.02;84.63;102345.16;5053131;28;20028;-63
2022/01/01 08:04:33;;;;;;;12.38;4.80;;;;;;;12.03;84.48;102347.88;5053089;28;20501;-62
2022/01/01 08:07:01;;;;;;;11.32;4.53;;;;;;;12.01;84.53;102344.28;5052894;28;20112;-63
2022/01/01 08:09:26;;;;;;;15.70;5.28;;;;;;;12.03;84.67;102349.59;5052781;28;20021;-63
2022/01/01 08:11:53;;;;;;;12.27;4.82;;;;;;;12.05;84.80;102344.38;5052899;28;20025;-63
2022/01/01 08:14:20;;;;;;;14.93;5.20;;;;;;;12.05;84.62;102354.97;5053106;28;20024;-62
2022/01/01 08:16:55;;;;;;;15.88;5.00;;;;;;;12.03;84.72;102342.59;5052857;28;20390;-62
2022/01/01 08:19:21;;;;;;;13.32;5.53;;;;;;;12.03;84.55;102349.59;5052850;28;20040;-62
2022/01/01 08:21:47;;;;;;;19.30;5.80;;;;;;;12.04;84.28;102356.72;5052861;28;20021;-62
2022/01/01 08:24:12;;;;;;;17.55;6.32;;;;;;;12.05;84.44;102353.22;5052590;28;20021;-63
2022/01/01 08:26:38;;;;;;;13.32;5.53;;;;;;;12.05;84.48;102350.56;5052781;28;20029;-62
2022/01/01 08:29:03;;;;;;;10.30;4.93;;;;;;;12.05;84.34;102349.66;5052652;28;20025;-62
2022/01/01 08:31:29;;;;;;;13.90;5.20;;;;;;;12.06;84.25;102348.81;5052706;28;20167;-63
2022/01/01 08:33:55;;;;;;;13.20;4.80;;;;;;;12.07;84.48;102358.53;5052684;28;20034;-63
2022/01/01 08:36:21;;;;;;;15.82;5.30;;;;;;;12.09;84.54;102348.91;5052725;28;20025;-62
2022/01/01 08:38:46;;;;;;;15.27;5.00;;;;;;;12.09;84.26;102355.09;5052344;28;20029;-64
2022/01/01 08:41:12;;;;;;;15.02;5.15;;;;;;;12.08;84.57;102355.06;5052542;28;20029;-62
2022/01/01 08:43:38;;;;;;;11.80;5.13;;;;;;;12.08;84.25;102355.97;5052629;28;20391;-63
2022/01/01 08:46:03;;;;;;;12.93;5.18;;;;;;;12.08;84.27;102345.38;5034516;28;20036;-63
2022/01/01 08:48:29;;;;;;;12.55;4.80;;;;;;;12.05;84.41;102347.03;5052914;28;20025;-63
2022/01/01 08:51:29;;;;;;;12.90;4.95;;;;;;;12.08;84.89;102355.97;5034030;28;20087;-63
2022/01/01 08:53:56;;;;;;;13.30;5.20;;;;;;;12.03;84.67;102357.56;4952173;28;20058;-63
2022/01/01 08:56:22;;;;;;;11.15;5.10;;;;;;;12.00;84.82;102355.72;4952396;29;20086;-63
2022/01/01 08:58:47;;;;;;;16.50;5.45;;;;;;;12.00;84.59;102361.03;4952473;29;20044;-62
2022/01/01 09:01:13;;;;;;;19.73;5.72;;;;;;;12.00;85.06;102354.84;4952525;29;20110;-62
2022/01/01 09:03:41;;;;;;;13.35;5.00;;;;;;;12.00;84.97;102349.53;4952307;29;20047;-63
2022/01/01 09:06:07;;;;;;;14.23;5.50;;;;;;;12.01;85.00;102353.97;4951827;29;20586;-63
2022/01/01 09:08:36;;;;;;;11.57;5.10;;;;;;;12.03;84.87;102346.94;4952100;28;20078;-63
2022/01/01 09:11:02;;;;;;;12.00;5.18;;;;;;;12.06;84.48;102343.50;4952348;29;20192;-63
2022/01/01 09:13:27;;;;;;;12.38;5.40;;;;;;;12.02;84.73;102347.81;4952218;29;20058;-63
2022/01/01 09:15:53;;;;;;;13.15;5.32;;;;;;;12.02;84.49;102343.41;4952337;29;20035;-63
2022/01/01 09:18:18;;;;;;;14.50;5.60;;;;;;;12.05;84.37;102345.25;4952285;29;20051;-63
2022/01/01 09:20:44;;;;;;;16.73;5.55;;;;;;;12.08;84.39;102339.16;4952241;29;20559;-64
2022/01/01 09:23:09;;;;;;;12.90;5.28;;;;;;;12.10;84.48;102338.34;4952048;29;20050;-63
2022/01/01 09:25:36;;;;;;;11.32;5.55;;;;;;;12.10;84.20;102333.03;4952187;29;20071;-63
2022/01/01 09:28:01;;;;;;;15.02;5.50;;;;;;;12.11;84.29;102333.94;4952025;29;20047;-63
2022/01/01 09:30:26;;;;;;;13.75;5.70;;;;;;;12.13;84.58;102338.44;5012320;28;20037;-64
2022/01/01 09:32:52;;;;;;;14.75;5.97;;;;;;;12.15;84.25;102344.66;5034201;28;20052;-63
2022/01/01 09:35:18;;;;;;;13.20;5.50;;;;;;;12.12;84.41;102328.69;5052093;28;20404;-63
2022/01/01 09:37:44;;;;;;;15.07;5.47;;;;;;;12.15;84.19;102334.06;5051765;28;20025;-62
2022/01/01 09:40:10;;;;;;;11.73;5.65;;;;;;;12.17;84.48;102321.78;5051937;28;20539;-62
2022/01/01 09:42:39;;;;;;;11.10;5.13;;;;;;;12.23;84.47;102334.28;5051981;28;20074;-63
2022/01/01 09:45:09;;;;;;;13.05;5.22;;;;;;;12.25;83.94;102340.53;5051811;28;20440;-62
2022/01/01 09:47:35;;;;;;;14.95;5.90;;;;;;;12.25;83.84;102335.25;5052047;28;20029;-63
2022/01/01 09:50:01;;;;;;;10.90;5.30;;;;;;;12.24;84.21;102326.38;5051942;28;20166;-63
2022/01/01 09:52:27;;;;;;;13.20;5.32;;;;;;;12.24;83.83;102325.47;5051706;28;20040;-63
2022/01/01 09:54:52;;;;;;;12.27;5.03;;;;;;;12.25;83.93;102319.34;5052154;28;20045;-62
2022/01/01 09:57:18;;;;;;;15.68;5.75;;;;;;;12.23;84.25;102321.94;5051916;28;20024;-62
2022/01/01 09:59:43;;;;;;;10.77;5.03;;;;;;;12.24;83.97;102317.50;5051775;28;20027;-63
2022/01/01 10:02:14;;;;;;;11.23;5.50;;;;;;;12.24;84.09;102318.41;5033900;28;20039;-65
2022/01/01 10:04:48;;;;;;;12.05;5.22;;;;;;;12.31;83.83;102318.59;5055524;28;20025;-64
2022/01/01 10:07:16;;;;;;;9.98;5.10;;;;;;;12.37;83.55;102318.75;5055074;28;20382;-64
2022/01/01 10:09:42;;;;;;;12.63;5.32;;;;;;;12.39;83.73;102320.59;5055316;28;20032;-64
2022/01/01 10:12:10;;;;;;;17.45;5.40;;;;;;;12.42;83.37;102314.47;5055447;28;20021;-64
2022/01/01 10:14:46;;;;;;;13.27;5.28;;;;;;;12.49;83.24;102308.47;5055304;28;20042;-64
2022/01/01 10:17:14;;;;;;;12.98;5.70;;;;;;;12.51;82.92;102304.13;5055236;28;20330;-64
2022/01/01 10:19:40;;;;;;;14.15;6.38;;;;;;;12.55;82.19;102290.09;5055038;28;20356;-64
2022/01/01 10:22:11;;;;;;;9.65;5.28;;;;;;;12.55;82.74;102290.09;5055053;28;20021;-64
2022/01/01 10:27:42;;;;;;;11.25;5.70;;;;;;;12.57;82.59;102280.41;5055100;28;20094;-65
2022/01/01 10:27:45;;;;;;;11.57;5.13;;;;;;;12.56;82.25;102283.94;5054650;28;20440;-63
2022/01/01 10:30:34;;;;;;;11.93;5.75;;;;;;;12.64;82.73;102289.44;5054906;28;20364;-63
2022/01/01 10:33:06;;;;;;;12.93;5.60;;;;;;;12.60;82.32;102277.84;5054874;28;20025;-63
2022/01/01 10:35:47;;;;;;;12.48;5.47;;;;;;;12.63;82.32;102277.00;5055087;28;20030;-64
2022/01/01 10:38:14;;;;;;;10.82;5.35;;;;;;;12.60;82.68;102269.88;5036807;28;20041;-64
2022/01/01 10:40:40;;;;;;;12.77;5.72;;;;;;;12.65;82.44;102272.66;5054656;28;20032;-63
2022/01/01 10:43:06;;;;;;;14.63;6.10;;;;;;;12.72;81.85;102271.97;5036912;28;20120;-64
2022/01/01 10:45:42;;;;;;;10.98;5.53;;;;;;;12.85;82.57;102275.78;5054867;28;20167;-64
2022/01/01 10:48:16;;;;;;;12.65;5.65;;;;;;;12.94;82.32;102268.97;5054673;28;20024;-63
2022/01/01 10:50:43;;;;;;;11.40;6.00;;;;;;;13.07;81.33;102266.59;5054544;28;20021;-62
2022/01/01 10:53:29;;;;;;;12.20;5.10;;;;;;;13.15;80.92;102260.59;5054219;28;20060;-63
2022/01/01 10:55:58;;;;;;;9.77;5.53;;;;;;;13.16;80.49;102246.47;5053936;28;20174;-63
2022/01/01 10:58:34;;;;;;;13.73;5.35;;;;;;;13.15;80.33;102243.78;5036460;28;20029;-63
2022/01/01 11:01:08;;;;;;;12.18;5.53;;;;;;;13.19;80.19;102251.84;5054397;28;20025;-63
2022/01/01 11:03:36;;;;;;;10.95;5.15;;;;;;;13.19;80.25;102256.25;5054382;28;20025;-63
2022/01/01 11:06:12;;;;;;;9.95;4.90;;;;;;;13.18;80.39;102238.53;5054403;28;20032;-63
2022/01/01 11:08:47;;;;;;;8.45;4.95;;;;;;;13.14;80.44;102249.94;5054080;28;20029;-64
2022/01/01 11:11:15;;;;;;;10.98;5.05;;;;;;;13.11;80.60;102231.31;5054095;28;20071;-63
2022/01/01 11:13:41;;;;;;;13.60;5.50;;;;;;;13.14;80.92;102242.88;5054142;28;20028;-63
2022/01/01 11:16:08;;;;;;;13.32;5.90;;;;;;;13.16;80.56;102249.13;5035493;28;20032;-63
2022/01/01 11:18:35;;;;;;;11.40;5.07;;;;;;;13.16;80.52;102242.91;5035826;28;20029;-63